sensor_id;sensor_type;location;lat;lon;timestamp;pressure;altitude;pressure_sealevel;temperature;humidity
10014;BME280;45684;48.358;10.746;2024-02-16T09:25:52;96220.34;;;13.73;100.00
10014;BME280;45684;48.358;10.746;2024-02-16T09:28:21;96226.09;;;14.05;100.00
10014;BME280;45684;48.358;10.746;2024-02-16T09:30:56;96228.97;;;14.33;99.33
10014;BME280;45684;48.358;10.746;2024-02-16T09:33:24;96231.59;;;14.54;95.10
10014;BME280;45684;48.358;10.746;2024-02-16T09:35:53;96234.69;;;14.65;90.35
10014;BME280;45684;48.358;10.746;2024-02-16T09:38:21;96237.97;;;14.58;90.21
10014;BME280;45684;48.358;10.746;2024-02-16T09:40:51;96234.56;;;14.49;89.95
10014;BME280;45684;48.358;10.746;2024-02-16T09:43:24;96235.47;;;14.77;90.00
10014;BME280;45684;48.358;10.746;2024-02-16T09:45:56;96245.78;;;14.96;90.95
10014;BME280;45684;48.358;10.746;2024-02-16T09:48:26;96249.81;;;15.15;88.64
10014;BME280;45684;48.358;10.746;2024-02-16T09:50:55;96252.66;;;15.18;86.21
10014;BME280;45684;48.358;10.746;2024-02-16T09:53:26;96248.28;;;15.42;85.21
10014;BME280;45684;48.358;10.746;2024-02-16T09:55:55;96241.81;;;15.46;84.28
10014;BME280;45684;48.358;10.746;2024-02-16T09:58:23;96246.72;;;15.41;85.20
10014;BME280;45684;48.358;10.746;2024-02-16T10:00:52;96251.69;;;15.39;85.38
10014;BME280;45684;48.358;10.746;2024-02-16T10:03:24;96255.25;;;15.39;85.08
10014;BME280;45684;48.358;10.746;2024-02-16T10:06:03;96247.16;;;15.43;84.60
10014;BME280;45684;48.358;10.746;2024-02-16T10:08:31;96253.91;;;15.61;84.28
10014;BME280;45684;48.358;10.746;2024-02-16T10:11:04;96244.81;;;15.69;83.35
10014;BME280;45684;48.358;10.746;2024-02-16T10:13:32;96249.66;;;15.76;81.25
10014;BME280;45684;48.358;10.746;2024-02-16T10:16:04;96250.38;;;16.01;81.18
10014;BME280;45684;48.358;10.746;2024-02-16T10:18:35;96247.13;;;16.11;78.02
10014;BME280;45684;48.358;10.746;2024-02-16T10:21:04;96253.41;;;16.27;74.47
10014;BME280;45684;48.358;10.746;2024-02-16T10:23:32;96258.88;;;16.27;73.27
10014;BME280;45684;48.358;10.746;2024-02-16T10:26:11;96256.75;;;16.37;72.90
10014;BME280;45684;48.358;10.746;2024-02-16T10:28:39;96250.94;;;16.54;72.53
10014;BME280;45684;48.358;10.746;2024-02-16T10:31:08;96242.94;;;16.61;70.31
10014;BME280;45684;48.358;10.746;2024-02-16T10:33:36;96245.13;;;16.71;70.16
10014;BME280;45684;48.358;10.746;2024-02-16T10:36:05;96247.47;;;17.04;68.93
10014;BME280;45684;48.358;10.746;2024-02-16T10:38:35;96250.44;;;17.31;68.20
10014;BME280;45684;48.358;10.746;2024-02-16T10:41:06;96251.38;;;17.58;64.21
10014;BME280;45684;48.358;10.746;2024-02-16T10:43:35;96245.66;;;17.82;62.21
10014;BME280;45684;48.358;10.746;2024-02-16T10:46:04;96250.81;;;18.07;61.04
10014;BME280;45684;48.358;10.746;2024-02-16T10:48:33;96251.28;;;18.13;59.36
10014;BME280;45684;48.358;10.746;2024-02-16T10:51:01;96248.47;;;18.09;59.41
10014;BME280;45684;48.358;10.746;2024-02-16T10:53:30;96246.28;;;17.76;59.84
10014;BME280;45684;48.358;10.746;2024-02-16T10:56:00;96255.03;;;17.81;62.43
10014;BME280;45684;48.358;10.746;2024-02-16T10:58:28;96246.06;;;17.84;60.70
10014;BME280;45684;48.358;10.746;2024-02-16T11:01:07;96248.59;;;17.74;60.97
10014;BME280;45684;48.358;10.746;2024-02-16T11:03:37;96248.94;;;17.72;62.05
10014;BME280;45684;48.358;10.746;2024-02-16T11:06:14;96244.91;;;17.66;62.33
10014;BME280;45684;48.358;10.746;2024-02-16T11:08:43;96248.94;;;17.72;63.28
10014;BME280;45684;48.358;10.746;2024-02-16T11:11:22;96254.75;;;17.71;62.43
10014;BME280;45684;48.358;10.746;2024-02-16T11:13:54;96257.41;;;17.67;61.13
10014;BME280;45684;48.358;10.746;2024-02-16T11:16:23;96249.66;;;17.69;61.72
10014;BME280;45684;48.358;10.746;2024-02-16T11:18:56;96252.81;;;17.71;61.66
10014;BME280;45684;48.358;10.746;2024-02-16T11:21:24;96256.66;;;17.86;61.06
10014;BME280;45684;48.358;10.746;2024-02-16T11:23:52;96254.63;;;18.02;61.28
10014;BME280;45684;48.358;10.746;2024-02-16T11:26:23;96257.84;;;18.08;57.18
10014;BME280;45684;48.358;10.746;2024-02-16T11:28:51;96262.38;;;17.77;55.05
10014;BME280;45684;48.358;10.746;2024-02-16T11:31:20;96255.81;;;17.82;55.59
10014;BME280;45684;48.358;10.746;2024-02-16T11:33:50;96266.47;;;17.87;56.21
10014;BME280;45684;48.358;10.746;2024-02-16T11:36:18;96266.59;;;17.94;55.96
10014;BME280;45684;48.358;10.746;2024-02-16T11:38:47;96265.22;;;17.84;56.59
10014;BME280;45684;48.358;10.746;2024-02-16T11:41:15;96259.47;;;17.90;55.74
10014;BME280;45684;48.358;10.746;2024-02-16T11:43:42;96265.56;;;18.02;55.51
10014;BME280;45684;48.358;10.746;2024-02-16T11:46:11;96265.25;;;18.27;55.77
10014;BME280;45684;48.358;10.746;2024-02-16T11:48:40;96264.91;;;18.28;54.27
10014;BME280;45684;48.358;10.746;2024-02-16T11:51:09;96263.28;;;18.27;54.48
10014;BME280;45684;48.358;10.746;2024-02-16T11:53:37;96266.53;;;18.33;54.96
10014;BME280;45684;48.358;10.746;2024-02-16T11:56:05;96264.59;;;18.33;56.41
10014;BME280;45684;48.358;10.746;2024-02-16T11:58:33;96258.13;;;18.45;55.64
10014;BME280;45684;48.358;10.746;2024-02-16T12:01:10;96248.88;;;18.53;54.56
10014;BME280;45684;48.358;10.746;2024-02-16T12:03:41;96252.50;;;18.57;55.20
10014;BME280;45684;48.358;10.746;2024-02-16T12:06:19;96249.91;;;18.68;54.20
10014;BME280;45684;48.358;10.746;2024-02-16T12:08:50;96255.59;;;18.56;54.20
10014;BME280;45684;48.358;10.746;2024-02-16T12:11:19;96257.84;;;18.73;54.88
10014;BME280;45684;48.358;10.746;2024-02-16T12:13:47;96250.00;;;18.72;54.05
10014;BME280;45684;48.358;10.746;2024-02-16T12:16:15;96253.38;;;18.88;53.88
10014;BME280;45684;48.358;10.746;2024-02-16T12:18:45;96248.41;;;18.94;53.98
10014;BME280;45684;48.358;10.746;2024-02-16T12:21:17;96249.91;;;18.91;54.06
10014;BME280;45684;48.358;10.746;2024-02-16T12:23:46;96243.44;;;18.76;54.76
10014;BME280;45684;48.358;10.746;2024-02-16T12:26:14;96245.59;;;18.90;53.86
10014;BME280;45684;48.358;10.746;2024-02-16T12:28:42;96249.59;;;18.96;54.85
10014;BME280;45684;48.358;10.746;2024-02-16T12:31:09;96246.41;;;18.91;55.57
10014;BME280;45684;48.358;10.746;2024-02-16T12:33:38;96250.72;;;18.92;55.48
10014;BME280;45684;48.358;10.746;2024-02-16T12:36:06;96248.72;;;18.66;56.40
10014;BME280;45684;48.358;10.746;2024-02-16T12:38:35;96246.84;;;18.70;55.77
10014;BME280;45684;48.358;10.746;2024-02-16T12:41:03;96247.66;;;18.70;56.84
10014;BME280;45684;48.358;10.746;2024-02-16T12:43:31;96252.38;;;18.73;56.95
10014;BME280;45684;48.358;10.746;2024-02-16T12:45:59;96250.06;;;18.75;57.25
10014;BME280;45684;48.358;10.746;2024-02-16T12:48:28;96254.75;;;18.52;57.58
10014;BME280;45684;48.358;10.746;2024-02-16T12:50:56;96259.06;;;18.53;58.53
10014;BME280;45684;48.358;10.746;2024-02-16T12:53:25;96258.13;;;18.45;59.73
10014;BME280;45684;48.358;10.746;2024-02-16T12:55:56;96261.63;;;18.42;61.97
10014;BME280;45684;48.358;10.746;2024-02-16T12:58:24;96260.94;;;18.26;59.42
10014;BME280;45684;48.358;10.746;2024-02-16T13:00:52;96259.59;;;18.39;60.26
10014;BME280;45684;48.358;10.746;2024-02-16T13:03:23;96250.59;;;18.39;60.67
10014;BME280;45684;48.358;10.746;2024-02-16T13:05:51;96266.00;;;18.47;59.95
10014;BME280;45684;48.358;10.746;2024-02-16T13:08:19;96258.38;;;18.36;58.84
10014;BME280;45684;48.358;10.746;2024-02-16T13:10:47;96256.16;;;18.42;59.09
10014;BME280;45684;48.358;10.746;2024-02-16T13:13:17;96253.34;;;18.39;58.46
10014;BME280;45684;48.358;10.746;2024-02-16T13:15:45;96252.09;;;18.36;58.42
10014;BME280;45684;48.358;10.746;2024-02-16T13:18:14;96253.03;;;18.44;58.42
10014;BME280;45684;48.358;10.746;2024-02-16T13:20:42;96255.84;;;18.47;59.18
10014;BME280;45684;48.358;10.746;2024-02-16T13:23:10;96248.72;;;18.43;58.68
10014;BME280;45684;48.358;10.746;2024-02-16T13:25:39;96257.34;;;18.45;58.85
10014;BME280;45684;48.358;10.746;2024-02-16T13:28:06;96262.50;;;18.27;59.79
10014;BME280;45684;48.358;10.746;2024-02-16T13:30:36;96249.13;;;18.22;59.61
10014;BME280;45684;48.358;10.746;2024-02-16T13:33:05;96253.38;;;18.19;60.29
10014;BME280;45684;48.358;10.746;2024-02-16T13:35:35;96251.00;;;18.18;60.23
10014;BME280;45684;48.358;10.746;2024-02-16T13:38:04;96250.66;;;18.19;60.66
10014;BME280;45684;48.358;10.746;2024-02-16T13:40:32;96253.31;;;18.16;61.12
10014;BME280;45684;48.358;10.746;2024-02-16T13:43:02;96257.13;;;18.11;60.25
10014;BME280;45684;48.358;10.746;2024-02-16T13:45:49;96253.13;;;18.05;60.23
10014;BME280;45684;48.358;10.746;2024-02-16T13:48:18;96260.19;;;18.06;59.93
10014;BME280;45684;48.358;10.746;2024-02-16T13:50:47;96265.94;;;18.01;60.52
10014;BME280;45684;48.358;10.746;2024-02-16T13:53:15;96255.78;;;18.01;60.80
10014;BME280;45684;48.358;10.746;2024-02-16T13:55:47;96259.69;;;18.00;60.55
10014;BME280;45684;48.358;10.746;2024-02-16T13:58:15;96267.53;;;18.02;58.58
10014;BME280;45684;48.358;10.746;2024-02-16T14:00:43;96261.84;;;17.91;59.24
10014;BME280;45684;48.358;10.746;2024-02-16T14:03:14;96274.44;;;17.96;59.81
10014;BME280;45684;48.358;10.746;2024-02-16T14:05:44;96263.63;;;18.03;58.39
10014;BME280;45684;48.358;10.746;2024-02-16T14:08:13;96267.03;;;17.96;58.83
10014;BME280;45684;48.358;10.746;2024-02-16T14:10:42;96271.34;;;17.97;58.93
10014;BME280;45684;48.358;10.746;2024-02-16T14:13:10;96273.72;;;17.99;59.47
10014;BME280;45684;48.358;10.746;2024-02-16T14:15:38;96270.63;;;18.00;60.27
10014;BME280;45684;48.358;10.746;2024-02-16T14:18:06;96279.63;;;18.01;60.22
10014;BME280;45684;48.358;10.746;2024-02-16T14:20:48;96281.41;;;17.93;60.80
10014;BME280;45684;48.358;10.746;2024-02-16T14:23:16;96282.13;;;17.90;60.93
10014;BME280;45684;48.358;10.746;2024-02-16T14:25:44;96278.41;;;17.79;62.43
10014;BME280;45684;48.358;10.746;2024-02-16T14:28:12;96286.91;;;17.74;63.86
10014;BME280;45684;48.358;10.746;2024-02-16T14:30:40;96287.50;;;17.67;65.17
10014;BME280;45684;48.358;10.746;2024-02-16T14:33:09;96287.66;;;17.55;66.50
10014;BME280;45684;48.358;10.746;2024-02-16T14:35:37;96281.97;;;17.44;67.34
10014;BME280;45684;48.358;10.746;2024-02-16T14:38:06;96290.16;;;17.44;67.97
10014;BME280;45684;48.358;10.746;2024-02-16T14:40:35;96284.44;;;17.33;68.90
10014;BME280;45684;48.358;10.746;2024-02-16T14:43:03;96291.06;;;17.32;68.98
10014;BME280;45684;48.358;10.746;2024-02-16T14:45:31;96287.44;;;17.28;68.24
10014;BME280;45684;48.358;10.746;2024-02-16T14:47:59;96293.50;;;17.38;67.35
10014;BME280;45684;48.358;10.746;2024-02-16T14:50:27;96295.66;;;17.28;67.24
10014;BME280;45684;48.358;10.746;2024-02-16T14:52:58;96289.56;;;17.35;67.19
10014;BME280;45684;48.358;10.746;2024-02-16T14:55:27;96291.63;;;17.22;68.73
10014;BME280;45684;48.358;10.746;2024-02-16T14:57:55;96298.66;;;17.23;67.93
10014;BME280;45684;48.358;10.746;2024-02-16T15:00:23;96294.78;;;17.24;66.84
10014;BME280;45684;48.358;10.746;2024-02-16T15:02:51;96300.53;;;17.19;67.18
10014;BME280;45684;48.358;10.746;2024-02-16T15:05:20;96298.34;;;17.09;68.27
10014;BME280;45684;48.358;10.746;2024-02-16T15:07:48;96300.88;;;17.02;70.38
10014;BME280;45684;48.358;10.746;2024-02-16T15:10:16;96300.38;;;16.96;70.67
10014;BME280;45684;48.358;10.746;2024-02-16T15:12:46;96306.75;;;16.85;71.67
10014;BME280;45684;48.358;10.746;2024-02-16T15:15:14;96303.72;;;16.74;73.87
10014;BME280;45684;48.358;10.746;2024-02-16T15:17:42;96302.59;;;16.75;73.51
10014;BME280;45684;48.358;10.746;2024-02-16T15:20:10;96311.13;;;16.73;74.29
10014;BME280;45684;48.358;10.746;2024-02-16T15:22:38;96315.09;;;16.60;75.70
10014;BME280;45684;48.358;10.746;2024-02-16T15:25:18;96312.50;;;16.51;77.08
10014;BME280;45684;48.358;10.746;2024-02-16T15:27:48;96316.97;;;16.44;78.86
10014;BME280;45684;48.358;10.746;2024-02-16T15:30:17;96320.66;;;16.36;80.80
10014;BME280;45684;48.358;10.746;2024-02-16T15:32:45;96322.69;;;16.23;83.00
10014;BME280;45684;48.358;10.746;2024-02-16T15:35:13;96323.00;;;16.21;83.88
10014;BME280;45684;48.358;10.746;2024-02-16T15:37:41;96332.59;;;16.15;84.71
10014;BME280;45684;48.358;10.746;2024-02-16T15:40:11;96328.75;;;16.04;86.98
10014;BME280;45684;48.358;10.746;2024-02-16T15:42:39;96343.25;;;15.92;88.47
10014;BME280;45684;48.358;10.746;2024-02-16T15:45:10;96346.47;;;15.82;90.90
10014;BME280;45684;48.358;10.746;2024-02-16T15:47:38;96340.47;;;15.76;93.48
10014;BME280;45684;48.358;10.746;2024-02-16T15:50:08;96338.31;;;15.70;95.08
10014;BME280;45684;48.358;10.746;2024-02-16T15:52:36;96345.94;;;15.64;96.03
10014;BME280;45684;48.358;10.746;2024-02-16T15:55:05;96341.84;;;15.58;96.22
10014;BME280;45684;48.358;10.746;2024-02-16T15:57:33;96347.19;;;15.54;96.59
10014;BME280;45684;48.358;10.746;2024-02-16T16:00:01;96350.03;;;15.46;98.00
10014;BME280;45684;48.358;10.746;2024-02-16T16:02:32;96353.66;;;15.38;98.65
10014;BME280;45684;48.358;10.746;2024-02-16T16:05:00;96355.06;;;15.31;99.98
10014;BME280;45684;48.358;10.746;2024-02-16T16:07:29;96357.09;;;15.35;100.00
10014;BME280;45684;48.358;10.746;2024-02-16T16:09:57;96367.41;;;15.29;100.00
10014;BME280;45684;48.358;10.746;2024-02-16T16:12:25;96368.34;;;15.21;100.00
10014;BME280;45684;48.358;10.746;2024-02-16T16:14:53;96374.81;;;15.16;100.00
10014;BME280;45684;48.358;10.746;2024-02-16T16:17:21;96363.44;;;15.14;100.00
10014;BME280;45684;48.358;10.746;2024-02-16T16:19:50;96370.03;;;15.13;100.00
10014;BME280;45684;48.358;10.746;2024-02-16T16:22:18;96371.41;;;15.07;100.00
10014;BME280;45684;48.358;10.746;2024-02-16T16:24:46;96373.44;;;14.98;100.00
10014;BME280;45684;48.358;10.746;2024-02-16T16:27:14;96373.88;;;14.88;100.00
10014;BME280;45684;48.358;10.746;2024-02-16T16:29:42;96378.16;;;14.76;100.00
10014;BME280;45684;48.358;10.746;2024-02-16T16:32:10;96381.69;;;14.65;100.00
10014;BME280;45684;48.358;10.746;2024-02-16T16:34:38;96391.50;;;14.57;100.00
10014;BME280;45684;48.358;10.746;2024-02-16T16:37:08;96393.97;;;14.50;100.00
10014;BME280;45684;48.358;10.746;2024-02-16T16:39:36;96395.63;;;14.42;100.00
10014;BME280;45684;48.358;10.746;2024-02-16T16:42:04;96393.34;;;14.32;100.00
10014;BME280;45684;48.358;10.746;2024-02-16T16:44:32;96392.72;;;14.26;100.00
10014;BME280;45684;48.358;10.746;2024-02-16T16:47:00;96404.16;;;14.20;100.00
10014;BME280;45684;48.358;10.746;2024-02-16T16:49:28;96403.56;;;14.14;100.00
10014;BME280;45684;48.358;10.746;2024-02-16T16:51:57;96410.00;;;14.10;100.00
10014;BME280;45684;48.358;10.746;2024-02-16T16:54:26;96411.34;;;14.03;100.00
10014;BME280;45684;48.358;10.746;2024-02-16T16:56:54;96414.59;;;13.97;100.00
10014;BME280;45684;48.358;10.746;2024-02-16T16:59:22;96413.19;;;13.91;100.00
10014;BME280;45684;48.358;10.746;2024-02-16T17:01:50;96423.47;;;13.85;100.00
10014;BME280;45684;48.358;10.746;2024-02-16T17:04:18;96424.47;;;13.81;100.00
10014;BME280;45684;48.358;10.746;2024-02-16T17:06:47;96430.56;;;13.77;100.00
10014;BME280;45684;48.358;10.746;2024-02-16T17:09:16;96424.03;;;13.70;100.00
10014;BME280;45684;48.358;10.746;2024-02-16T17:11:46;96428.88;;;13.64;100.00
10014;BME280;45684;48.358;10.746;2024-02-16T17:14:14;96428.63;;;13.57;100.00
10014;BME280;45684;48.358;10.746;2024-02-16T17:16:42;96437.41;;;13.54;100.00
10014;BME280;45684;48.358;10.746;2024-02-16T17:19:12;96440.47;;;13.52;100.00
10014;BME280;45684;48.358;10.746;2024-02-16T17:21:40;96453.41;;;13.47;100.00
10014;BME280;45684;48.358;10.746;2024-02-16T17:24:08;96448.31;;;13.45;100.00
10014;BME280;45684;48.358;10.746;2024-02-16T17:26:36;96464.47;;;13.42;100.00
10014;BME280;45684;48.358;10.746;2024-02-16T17:29:06;96460.19;;;13.41;100.00
10014;BME280;45684;48.358;10.746;2024-02-16T17:31:34;96464.34;;;13.38;100.00
10014;BME280;45684;48.358;10.746;2024-02-16T17:34:02;96468.50;;;13.36;100.00
10014;BME280;45684;48.358;10.746;2024-02-16T17:36:35;96471.22;;;13.36;100.00
10014;BME280;45684;48.358;10.746;2024-02-16T17:39:03;96475.06;;;13.35;100.00
10014;BME280;45684;48.358;10.746;2024-02-16T17:41:31;96476.19;;;13.34;100.00
10014;BME280;45684;48.358;10.746;2024-02-16T17:43:59;96481.63;;;13.34;100.00
10014;BME280;45684;48.358;10.746;2024-02-16T17:46:29;96481.47;;;13.30;100.00
10014;BME280;45684;48.358;10.746;2024-02-16T17:48:57;96499.06;;;13.24;100.00
10014;BME280;45684;48.358;10.746;2024-02-16T17:51:25;96496.66;;;13.22;100.00
10014;BME280;45684;48.358;10.746;2024-02-16T17:53:53;96507.22;;;13.15;100.00
10014;BME280;45684;48.358;10.746;2024-02-16T17:56:21;96503.22;;;13.13;100.00
10014;BME280;45684;48.358;10.746;2024-02-16T17:58:48;96506.91;;;13.08;100.00
10014;BME280;45684;48.358;10.746;2024-02-16T18:01:16;96504.03;;;13.13;100.00
10014;BME280;45684;48.358;10.746;2024-02-16T18:03:46;96502.59;;;13.16;100.00
10014;BME280;45684;48.358;10.746;2024-02-16T18:06:14;96505.47;;;13.11;100.00
10014;BME280;45684;48.358;10.746;2024-02-16T18:08:42;96506.28;;;13.11;100.00
10014;BME280;45684;48.358;10.746;2024-02-16T18:11:10;96512.00;;;13.10;100.00
10014;BME280;45684;48.358;10.746;2024-02-16T18:13:38;96512.34;;;13.08;100.00
10014;BME280;45684;48.358;10.746;2024-02-16T18:16:06;96516.34;;;13.11;100.00
10014;BME280;45684;48.358;10.746;2024-02-16T18:18:34;96518.38;;;13.14;100.00
10014;BME280;45684;48.358;10.746;2024-02-16T18:21:04;96522.06;;;13.09;100.00
10014;BME280;45684;48.358;10.746;2024-02-16T18:23:33;96511.88;;;13.06;100.00
10014;BME280;45684;48.358;10.746;2024-02-16T18:26:00;96522.88;;;13.10;100.00
10014;BME280;45684;48.358;10.746;2024-02-16T18:28:28;96519.38;;;13.09;100.00
10014;BME280;45684;48.358;10.746;2024-02-16T18:31:10;96526.25;;;13.07;100.00
10014;BME280;45684;48.358;10.746;2024-02-16T18:33:38;96530.09;;;13.06;100.00
10014;BME280;45684;48.358;10.746;2024-02-16T18:36:08;96528.97;;;12.98;100.00
10014;BME280;45684;48.358;10.746;2024-02-16T18:38:36;96529.00;;;12.89;100.00
10014;BME280;45684;48.358;10.746;2024-02-16T18:41:09;96538.41;;;12.92;100.00
10014;BME280;45684;48.358;10.746;2024-02-16T18:43:37;96536.63;;;12.96;100.00
10014;BME280;45684;48.358;10.746;2024-02-16T18:46:05;96526.59;;;12.96;100.00
10014;BME280;45684;48.358;10.746;2024-02-16T18:48:32;96532.31;;;13.03;100.00
10014;BME280;45684;48.358;10.746;2024-02-16T18:51:01;96541.25;;;13.04;100.00
10014;BME280;45684;48.358;10.746;2024-02-16T18:53:30;96529.09;;;13.10;100.00
10014;BME280;45684;48.358;10.746;2024-02-16T18:55:58;96536.16;;;13.11;100.00
10014;BME280;45684;48.358;10.746;2024-02-16T18:58:26;96541.56;;;13.11;100.00
10014;BME280;45684;48.358;10.746;2024-02-16T19:00:57;96533.09;;;13.13;100.00
10014;BME280;45684;48.358;10.746;2024-02-16T19:03:25;96541.25;;;13.13;100.00
10014;BME280;45684;48.358;10.746;2024-02-16T19:05:53;96542.22;;;13.08;100.00
10014;BME280;45684;48.358;10.746;2024-02-16T19:08:21;96537.13;;;13.07;100.00
10014;BME280;45684;48.358;10.746;2024-02-16T19:10:50;96532.47;;;13.07;100.00
10014;BME280;45684;48.358;10.746;2024-02-16T19:13:19;96543.00;;;13.09;100.00
10014;BME280;45684;48.358;10.746;2024-02-16T19:15:47;96547.97;;;13.15;100.00
10014;BME280;45684;48.358;10.746;2024-02-16T19:18:15;96547.63;;;13.17;100.00
10014;BME280;45684;48.358;10.746;2024-02-16T19:20:44;96550.34;;;13.17;100.00
10014;BME280;45684;48.358;10.746;2024-02-16T19:23:12;96557.03;;;13.19;100.00
10014;BME280;45684;48.358;10.746;2024-02-16T19:25:42;96558.00;;;13.23;100.00
10014;BME280;45684;48.358;10.746;2024-02-16T19:28:11;96560.72;;;13.23;100.00
10014;BME280;45684;48.358;10.746;2024-02-16T19:30:39;96566.16;;;13.23;100.00
10014;BME280;45684;48.358;10.746;2024-02-16T19:33:08;96560.88;;;13.18;100.00
10014;BME280;45684;48.358;10.746;2024-02-16T19:35:36;96564.72;;;13.17;100.00
10014;BME280;45684;48.358;10.746;2024-02-16T19:38:04;96561.53;;;13.15;100.00
10014;BME280;45684;48.358;10.746;2024-02-16T19:40:32;96564.25;;;13.15;100.00
10014;BME280;45684;48.358;10.746;2024-02-16T19:43:00;96562.34;;;13.16;100.00
10014;BME280;45684;48.358;10.746;2024-02-16T19:45:30;96568.38;;;13.21;100.00
10014;BME280;45684;48.358;10.746;2024-02-16T19:47:58;96576.22;;;13.23;100.00
10014;BME280;45684;48.358;10.746;2024-02-16T19:50:26;96582.94;;;13.25;100.00
10014;BME280;45684;48.358;10.746;2024-02-16T19:52:54;96586.13;;;13.27;100.00
10014;BME280;45684;48.358;10.746;2024-02-16T19:55:22;96584.84;;;13.34;100.00
10014;BME280;45684;48.358;10.746;2024-02-16T19:57:50;96595.06;;;13.28;100.00
10014;BME280;45684;48.358;10.746;2024-02-16T20:00:18;96588.69;;;13.24;100.00
10014;BME280;45684;48.358;10.746;2024-02-16T20:02:48;96598.25;;;13.21;100.00
10014;BME280;45684;48.358;10.746;2024-02-16T20:05:18;96596.66;;;13.20;100.00
10014;BME280;45684;48.358;10.746;2024-02-16T20:07:49;96598.44;;;13.16;100.00
10014;BME280;45684;48.358;10.746;2024-02-16T20:10:17;96606.56;;;13.16;100.00
10014;BME280;45684;48.358;10.746;2024-02-16T20:12:45;96599.56;;;13.15;100.00
10014;BME280;45684;48.358;10.746;2024-02-16T20:15:13;96602.09;;;13.12;100.00
10014;BME280;45684;48.358;10.746;2024-02-16T20:17:41;96608.16;;;13.09;100.00
10014;BME280;45684;48.358;10.746;2024-02-16T20:20:11;96608.84;;;13.06;100.00
10014;BME280;45684;48.358;10.746;2024-02-16T20:22:39;96610.72;;;13.05;100.00
10014;BME280;45684;48.358;10.746;2024-02-16T20:25:07;96607.22;;;13.05;100.00
10014;BME280;45684;48.358;10.746;2024-02-16T20:27:35;96606.13;;;13.06;100.00
10014;BME280;45684;48.358;10.746;2024-02-16T20:30:04;96613.94;;;13.07;100.00
10014;BME280;45684;48.358;10.746;2024-02-16T20:32:32;96615.53;;;13.08;100.00
10014;BME280;45684;48.358;10.746;2024-02-16T20:35:00;96621.75;;;13.09;100.00
10014;BME280;45684;48.358;10.746;2024-02-16T20:37:32;96616.31;;;13.09;100.00
10014;BME280;45684;48.358;10.746;2024-02-16T20:40:00;96618.69;;;13.10;100.00
10014;BME280;45684;48.358;10.746;2024-02-16T20:42:28;96617.91;;;13.10;100.00
10014;BME280;45684;48.358;10.746;2024-02-16T20:44:56;96625.75;;;13.11;100.00
10014;BME280;45684;48.358;10.746;2024-02-16T20:47:24;96624.63;;;13.12;100.00
10014;BME280;45684;48.358;10.746;2024-02-16T20:49:53;96628.59;;;13.15;100.00
10014;BME280;45684;48.358;10.746;2024-02-16T20:52:22;96635.69;;;13.24;100.00
10014;BME280;45684;48.358;10.746;2024-02-16T20:54:51;96637.38;;;13.38;100.00
10014;BME280;45684;48.358;10.746;2024-02-16T20:57:20;96637.38;;;13.55;100.00
10014;BME280;45684;48.358;10.746;2024-02-16T20:59:48;96642.44;;;13.65;100.00
10014;BME280;45684;48.358;10.746;2024-02-16T21:02:16;96648.81;;;13.78;100.00
10014;BME280;45684;48.358;10.746;2024-02-16T21:04:46;96644.16;;;13.78;100.00
10014;BME280;45684;48.358;10.746;2024-02-16T21:07:14;96656.19;;;13.77;100.00
10014;BME280;45684;48.358;10.746;2024-02-16T21:09:42;96658.88;;;13.77;100.00
10014;BME280;45684;48.358;10.746;2024-02-16T21:12:12;96655.69;;;13.75;100.00
10014;BME280;45684;48.358;10.746;2024-02-16T21:14:40;96645.97;;;13.66;100.00
10014;BME280;45684;48.358;10.746;2024-02-16T21:17:08;96659.72;;;13.61;100.00
10014;BME280;45684;48.358;10.746;2024-02-16T21:19:36;96660.22;;;13.54;100.00
10014;BME280;45684;48.358;10.746;2024-02-16T21:22:04;96656.09;;;13.48;100.00
10014;BME280;45684;48.358;10.746;2024-02-16T21:24:32;96668.72;;;13.44;100.00
10014;BME280;45684;48.358;10.746;2024-02-16T21:27:00;96669.34;;;13.41;100.00
10014;BME280;45684;48.358;10.746;2024-02-16T21:29:30;96678.13;;;13.38;100.00
10014;BME280;45684;48.358;10.746;2024-02-16T21:31:58;96678.81;;;13.35;100.00
10014;BME280;45684;48.358;10.746;2024-02-16T21:34:26;96679.59;;;13.26;100.00
10014;BME280;45684;48.358;10.746;2024-02-16T21:36:54;96680.06;;;13.28;100.00
10014;BME280;45684;48.358;10.746;2024-02-16T21:39:25;96685.81;;;13.27;100.00
10014;BME280;45684;48.358;10.746;2024-02-16T21:41:53;96683.56;;;13.20;100.00
10014;BME280;45684;48.358;10.746;2024-02-16T21:44:21;96679.72;;;13.13;100.00
10014;BME280;45684;48.358;10.746;2024-02-16T21:46:53;96684.38;;;13.12;100.00
10014;BME280;45684;48.358;10.746;2024-02-16T21:49:24;96685.00;;;13.09;100.00
10014;BME280;45684;48.358;10.746;2024-02-16T21:51:54;96685.94;;;13.05;100.00
10014;BME280;45684;48.358;10.746;2024-02-16T21:54:22;96695.56;;;13.02;100.00
10014;BME280;45684;48.358;10.746;2024-02-16T21:56:50;96693.28;;;12.95;100.00
10014;BME280;45684;48.358;10.746;2024-02-16T21:59:18;96701.13;;;12.97;100.00
10014;BME280;45684;48.358;10.746;2024-02-16T22:01:45;96700.19;;;12.93;100.00
10014;BME280;45684;48.358;10.746;2024-02-16T22:04:15;96699.84;;;12.94;100.00
10014;BME280;45684;48.358;10.746;2024-02-16T22:06:44;96704.16;;;12.95;100.00
10014;BME280;45684;48.358;10.746;2024-02-16T22:09:15;96709.59;;;12.95;100.00
10014;BME280;45684;48.358;10.746;2024-02-16T22:11:42;96704.94;;;12.96;100.00
10014;BME280;45684;48.358;10.746;2024-02-16T22:14:11;96708.78;;;12.95;100.00
10014;BME280;45684;48.358;10.746;2024-02-16T22:16:38;96712.63;;;12.94;100.00
10014;BME280;45684;48.358;10.746;2024-02-16T22:19:08;96704.63;;;12.89;100.00